Time;durP1;ratioP1;P1;durP2;ratioP2;P2;SDS_P1;SDS_P2;PMS_P1;PMS_P2;Temp;Humidity;BMP_temperature;BMP_pressure;BME280_temperature;BME280_humidity;BME280_pressure;Samples;Min_cycle;Max_cycle;Signal;HPM_P1;HPM_P2
2022/01/05 00:01:50;;;;;;;5.43;3.77;;;5.30;99.90;;;;;;637025;224;26548;-81
2022/01/05 00:04:19;;;;;;;5.63;4.03;;;5.70;99.90;;;;;;637147;225;26789;-81
2022/01/05 00:06:45;;;;;;;7.17;3.90;;;5.70;99.90;;;;;;637082;225;26840;-81
2022/01/05 00:09:12;;;;;;;5.47;3.67;;;5.60;99.90;;;;;;637103;224;26589;-81
2022/01/05 00:11:41;;;;;;;8.23;3.77;;;5.70;99.90;;;;;;637111;225;26819;-81
2022/01/05 00:14:07;;;;;;;4.93;3.70;;;5.50;99.90;;;;;;637120;225;26539;-81
2022/01/05 00:16:34;;;;;;;9.57;4.13;;;5.40;99.90;;;;;;638911;223;26571;-82
2022/01/05 00:19:02;;;;;;;4.03;3.30;;;5.70;99.90;;;;;;638414;220;26727;-81
2022/01/05 00:21:29;;;;;;;7.27;3.63;;;5.70;99.90;;;;;;638087;225;26590;-82
2022/01/05 00:23:56;;;;;;;4.70;3.90;;;5.80;99.90;;;;;;637993;224;26551;-82
2022/01/05 00:26:25;;;;;;;7.13;3.50;;;5.90;99.90;;;;;;637679;224;27211;-82
2022/01/05 00:28:51;;;;;;;5.17;3.60;;;5.50;99.90;;;;;;637588;224;26555;-82
2022/01/05 00:31:19;;;;;;;5.40;3.77;;;5.30;99.90;;;;;;637652;225;26547;-81
2022/01/05 00:33:46;;;;;;;4.60;3.90;;;5.30;99.90;;;;;;637546;224;26585;-81
2022/01/05 00:36:14;;;;;;;5.33;3.30;;;5.20;99.90;;;;;;637402;225;26533;-81
2022/01/05 00:38:41;;;;;;;5.13;3.90;;;5.00;99.90;;;;;;637402;224;26860;-82
2022/01/05 00:41:08;;;;;;;6.00;3.57;;;5.10;99.90;;;;;;637464;225;26789;-82
2022/01/05 00:43:35;;;;;;;4.13;2.97;;;5.20;99.90;;;;;;637380;224;26520;-81
2022/01/05 00:46:03;;;;;;;4.67;3.30;;;5.30;99.90;;;;;;637364;225;26572;-82
2022/01/05 00:48:32;;;;;;;4.80;2.63;;;5.30;99.90;;;;;;637355;224;26524;-81
2022/01/05 00:51:00;;;;;;;6.40;3.03;;;5.20;99.90;;;;;;637683;225;26577;-81
2022/01/05 00:53:25;;;;;;;3.00;2.70;;;5.20;99.90;;;;;;637481;225;27036;-82
2022/01/05 00:55:52;;;;;;;7.77;3.10;;;5.00;99.90;;;;;;637651;226;26533;-81
2022/01/05 00:58:19;;;;;;;4.20;2.90;;;5.00;99.90;;;;;;637524;225;26544;-84
2022/01/05 01:00:47;;;;;;;4.50;2.80;;;5.20;99.90;;;;;;637578;224;26569;-81
2022/01/05 01:03:14;;;;;;;5.30;2.60;;;5.20;99.90;;;;;;637619;224;26791;-82
2022/01/05 01:05:42;;;;;;;4.07;2.77;;;5.20;99.90;;;;;;637669;224;26521;-81
2022/01/05 01:08:10;;;;;;;9.13;3.20;;;5.50;99.90;;;;;;637702;225;26540;-82
2022/01/05 01:10:37;;;;;;;6.07;3.07;;;5.50;99.90;;;;;;637625;221;26848;-81
2022/01/05 01:13:05;;;;;;;5.87;2.83;;;5.40;99.90;;;;;;637447;224;26806;-82
2022/01/05 01:15:33;;;;;;;4.07;2.30;;;5.30;99.90;;;;;;637197;226;26612;-83
2022/01/05 01:18:00;;;;;;;7.00;2.67;;;5.20;99.90;;;;;;637181;224;26572;-81
2022/01/05 01:20:27;;;;;;;4.57;2.43;;;5.40;99.90;;;;;;637181;221;26576;-82
2022/01/05 01:22:54;;;;;;;2.77;2.40;;;5.40;99.90;;;;;;637197;224;26833;-82
2022/01/05 01:25:22;;;;;;;4.73;2.80;;;6.00;99.90;;;;;;637215;224;26592;-82
2022/01/05 01:27:50;;;;;;;7.90;2.70;;;6.00;99.90;;;;;;638750;223;26564;-82
2022/01/05 01:30:17;;;;;;;5.83;2.97;;;5.90;99.90;;;;;;638526;224;26553;-82
2022/01/05 01:32:44;;;;;;;6.90;3.17;;;6.20;99.90;;;;;;638214;225;26552;-81
2022/01/05 01:35:12;;;;;;;7.20;2.90;;;5.90;99.90;;;;;;638170;224;26794;-81
2022/01/05 01:37:39;;;;;;;6.43;3.17;;;5.70;99.90;;;;;;637866;225;26507;-81
2022/01/05 01:40:07;;;;;;;4.00;2.43;;;5.70;99.90;;;;;;637831;224;26547;-81
2022/01/05 01:42:34;;;;;;;8.43;2.90;;;5.80;99.90;;;;;;637958;224;26534;-81
2022/01/05 01:45:01;;;;;;;6.03;2.80;;;6.00;99.90;;;;;;643916;222;26569;-81
2022/01/05 01:47:29;;;;;;;5.10;2.33;;;5.80;99.90;;;;;;647633;222;26808;-82
2022/01/05 01:49:56;;;;;;;3.50;2.57;;;5.70;99.90;;;;;;647640;217;26597;-81
2022/01/05 01:52:23;;;;;;;5.00;2.30;;;6.00;99.90;;;;;;647677;222;26544;-81
2022/01/05 01:54:51;;;;;;;7.17;2.77;;;6.20;99.90;;;;;;647695;217;26554;-81
2022/01/05 01:57:20;;;;;;;3.93;2.20;;;6.20;99.90;;;;;;647623;222;26908;-81
2022/01/05 01:59:46;;;;;;;3.37;2.20;;;5.80;99.90;;;;;;649791;221;26609;-81
2022/01/05 02:02:13;;;;;;;3.93;2.13;;;6.10;99.90;;;;;;649726;221;26606;-81
2022/01/05 02:04:42;;;;;;;3.53;1.93;;;6.20;99.90;;;;;;649382;221;26566;-81
2022/01/05 02:07:08;;;;;;;4.53;2.40;;;6.00;99.90;;;;;;649384;221;26802;-81
2022/01/05 02:09:35;;;;;;;4.27;1.90;;;6.10;99.90;;;;;;649420;221;26540;-82
2022/01/05 02:12:02;;;;;;;3.17;2.17;;;6.00;99.90;;;;;;649435;221;26523;-82
2022/01/05 02:14:29;;;;;;;10.57;2.63;;;5.90;99.90;;;;;;646927;221;26523;-82
2022/01/05 02:16:58;;;;;;;3.83;3.00;;;5.70;99.90;;;;;;637207;225;26581;-81
2022/01/05 02:19:24;;;;;;;7.33;2.90;;;5.90;99.90;;;;;;637048;221;26598;-81
2022/01/05 02:21:51;;;;;;;5.47;2.30;;;5.70;99.90;;;;;;637130;224;26792;-81
2022/01/05 02:24:18;;;;;;;4.07;2.10;;;5.70;99.90;;;;;;637557;224;26561;-82
2022/01/05 02:26:45;;;;;;;7.07;2.30;;;5.80;99.90;;;;;;640622;224;26561;-81
2022/01/05 02:29:13;;;;;;;4.57;2.43;;;5.80;99.90;;;;;;640616;224;26567;-81
2022/01/05 02:31:40;;;;;;;3.23;2.20;;;5.70;99.90;;;;;;640622;224;26805;-82
2022/01/05 02:34:08;;;;;;;10.20;2.57;;;6.00;99.90;;;;;;643077;222;26572;-82
2022/01/05 02:36:35;;;;;;;9.20;2.70;;;5.80;99.90;;;;;;647251;222;26902;-82
2022/01/05 02:39:02;;;;;;;6.50;2.53;;;5.80;99.90;;;;;;645018;220;26541;-82
2022/01/05 02:41:29;;;;;;;12.70;2.50;;;5.80;99.90;;;;;;638563;223;26524;-82
2022/01/05 02:43:57;;;;;;;5.93;2.20;;;5.90;99.90;;;;;;640636;222;26612;-82
2022/01/05 02:46:24;;;;;;;3.07;2.77;;;5.90;99.90;;;;;;648274;221;26814;-82
2022/01/05 02:48:52;;;;;;;3.37;2.07;;;6.00;99.90;;;;;;647984;222;26577;-81
2022/01/05 02:51:19;;;;;;;6.27;2.20;;;6.10;99.90;;;;;;647999;222;26748;-81
2022/01/05 02:53:47;;;;;;;8.40;2.30;;;6.20;99.90;;;;;;648036;217;26546;-81
2022/01/05 02:56:15;;;;;;;6.50;2.40;;;6.40;99.90;;;;;;647920;222;26609;-81
2022/01/05 02:58:42;;;;;;;5.63;2.70;;;6.40;99.90;;;;;;647670;222;26572;-82
2022/01/05 03:01:09;;;;;;;4.87;1.97;;;6.20;99.90;;;;;;647700;217;26503;-81
2022/01/05 03:03:36;;;;;;;7.13;2.30;;;6.30;99.90;;;;;;647640;222;26802;-82
2022/01/05 03:06:04;;;;;;;3.63;1.90;;;5.90;99.90;;;;;;647703;222;26524;-82
2022/01/05 03:08:31;;;;;;;4.83;2.27;;;5.80;99.90;;;;;;647643;222;26813;-82
2022/01/05 03:10:59;;;;;;;2.57;2.30;;;6.00;99.90;;;;;;647649;222;26833;-81
2022/01/05 03:13:25;;;;;;;8.37;2.90;;;5.90;99.90;;;;;;647618;222;26758;-81
2022/01/05 03:15:54;;;;;;;4.33;2.90;;;6.00;99.90;;;;;;647322;222;26557;-81
2022/01/05 03:18:21;;;;;;;5.67;2.50;;;6.20;99.90;;;;;;647174;222;26570;-81
2022/01/05 03:20:48;;;;;;;6.30;2.30;;;6.20;99.90;;;;;;647351;222;26606;-82
2022/01/05 03:23:15;;;;;;;6.20;2.57;;;6.20;99.90;;;;;;647640;222;26580;-82
2022/01/05 03:25:43;;;;;;;2.73;2.40;;;6.40;99.90;;;;;;647747;222;26758;-82
2022/01/05 03:28:11;;;;;;;6.30;2.47;;;6.70;99.90;;;;;;647708;222;26552;-81
2022/01/05 03:30:39;;;;;;;5.27;2.30;;;6.70;99.90;;;;;;647894;222;26613;-81
2022/01/05 03:33:11;;;;;;;7.33;2.33;;;6.70;99.90;;;;;;648050;222;26800;-83
2022/01/05 03:35:36;;;;;;;7.70;2.47;;;6.60;99.90;;;;;;647878;222;26498;-82
2022/01/05 03:38:04;;;;;;;6.17;2.53;;;6.10;99.90;;;;;;648236;221;26581;-82
2022/01/05 03:40:32;;;;;;;4.77;2.27;;;6.00;99.90;;;;;;650027;221;26533;-82
2022/01/05 03:42:58;;;;;;;4.43;2.30;;;5.90;99.90;;;;;;649934;221;26514;-81
2022/01/05 03:45:25;;;;;;;4.70;2.33;;;6.00;99.90;;;;;;649912;221;26760;-81
2022/01/05 03:47:53;;;;;;;4.30;2.30;;;6.20;99.90;;;;;;649921;221;26518;-81
2022/01/05 03:50:21;;;;;;;5.80;2.33;;;6.30;99.90;;;;;;651093;219;26622;-81
2022/01/05 03:52:48;;;;;;;3.73;2.30;;;6.20;99.90;;;;;;651448;220;26526;-80
2022/01/05 03:55:16;;;;;;;6.67;2.30;;;6.30;99.90;;;;;;651218;221;26579;-80
2022/01/05 03:57:43;;;;;;;5.07;2.20;;;6.20;99.90;;;;;;650129;221;26819;-81
2022/01/05 04:00:11;;;;;;;6.47;2.63;;;5.90;99.90;;;;;;648049;217;26530;-81
2022/01/05 04:02:38;;;;;;;10.47;2.47;;;5.90;99.90;;;;;;647985;222;26553;-81
2022/01/05 04:05:06;;;;;;;4.33;2.47;;;5.60;99.90;;;;;;647940;222;26577;-82
2022/01/05 04:07:33;;;;;;;5.07;2.23;;;5.60;99.90;;;;;;647867;222;26502;-81
2022/01/05 04:10:01;;;;;;;5.33;2.13;;;5.90;99.90;;;;;;647613;222;26595;-81
2022/01/05 04:12:28;;;;;;;12.13;2.50;;;5.80;99.90;;;;;;647623;222;26876;-81
2022/01/05 04:14:55;;;;;;;7.17;2.70;;;6.00;99.90;;;;;;647574;222;26587;-81
2022/01/05 04:17:23;;;;;;;3.97;2.50;;;6.00;99.90;;;;;;647516;222;26835;-81
2022/01/05 04:19:51;;;;;;;3.03;1.97;;;5.80;99.90;;;;;;647554;222;26547;-81
2022/01/05 04:22:18;;;;;;;9.53;2.30;;;5.60;99.90;;;;;;647594;222;26580;-81
2022/01/05 04:24:46;;;;;;;6.63;2.63;;;5.60;99.90;;;;;;647469;222;26568;-81
2022/01/05 04:27:15;;;;;;;5.97;2.73;;;5.70;99.90;;;;;;647120;222;26546;-81
2022/01/05 04:29:40;;;;;;;4.07;2.40;;;5.70;99.90;;;;;;646968;222;26839;-81
2022/01/05 04:32:08;;;;;;;6.50;2.50;;;5.50;99.90;;;;;;647121;217;26809;-82
2022/01/05 04:34:36;;;;;;;5.00;2.10;;;5.40;99.90;;;;;;647126;222;26569;-80
2022/01/05 04:37:03;;;;;;;6.07;2.27;;;5.40;99.90;;;;;;647205;222;26590;-81
2022/01/05 04:39:31;;;;;;;4.60;1.97;;;5.60;99.90;;;;;;647231;222;26568;-81
2022/01/05 04:41:58;;;;;;;6.73;2.10;;;5.60;99.90;;;;;;647180;222;26648;-80
2022/01/05 04:44:25;;;;;;;7.43;2.57;;;5.70;99.90;;;;;;647256;222;26844;-81
2022/01/05 04:46:52;;;;;;;9.53;2.43;;;5.60;99.90;;;;;;643930;222;26783;-81
2022/01/05 04:49:20;;;;;;;3.60;2.17;;;5.60;99.90;;;;;;643922;222;26811;-81
2022/01/05 04:51:48;;;;;;;4.90;2.43;;;5.60;99.90;;;;;;647178;222;26619;-82
2022/01/05 04:54:15;;;;;;;3.07;2.10;;;5.60;99.90;;;;;;647243;222;26616;-80
2022/01/05 04:56:42;;;;;;;4.27;2.37;;;5.80;99.90;;;;;;647160;222;26565;-81
2022/01/05 04:59:09;;;;;;;6.27;2.33;;;5.60;99.90;;;;;;647092;222;26856;-81
2022/01/05 05:01:37;;;;;;;3.13;2.07;;;5.30;99.90;;;;;;648031;220;26551;-80
2022/01/05 05:04:05;;;;;;;3.77;2.43;;;5.40;99.90;;;;;;648776;221;26523;-80
2022/01/05 05:06:33;;;;;;;3.87;1.73;;;5.60;99.90;;;;;;647598;222;26527;-80
2022/01/05 05:09:00;;;;;;;5.73;2.33;;;5.60;99.90;;;;;;639206;221;26829;-81
2022/01/05 05:11:27;;;;;;;2.63;2.10;;;5.50;99.90;;;;;;641166;223;26786;-80
2022/01/05 05:13:55;;;;;;;3.13;1.90;;;5.50;99.90;;;;;;641140;223;26822;-81
2022/01/05 05:16:23;;;;;;;4.27;2.03;;;5.60;99.90;;;;;;641213;224;26731;-81
2022/01/05 05:18:51;;;;;;;6.90;2.23;;;5.40;99.90;;;;;;641226;223;26534;-80
2022/01/05 05:21:18;;;;;;;6.03;2.57;;;5.40;99.90;;;;;;640870;223;26888;-80
2022/01/05 05:23:45;;;;;;;5.80;2.53;;;5.40;99.90;;;;;;637797;224;26600;-79
2022/01/05 05:26:12;;;;;;;8.23;2.70;;;5.40;99.90;;;;;;637403;225;26877;-81
2022/01/05 05:28:40;;;;;;;4.30;1.80;;;5.00;99.90;;;;;;637428;225;26605;-80
2022/01/05 05:31:08;;;;;;;5.03;2.70;;;4.70;99.90;;;;;;637530;225;26612;-80
2022/01/05 05:33:35;;;;;;;7.13;2.93;;;4.60;99.90;;;;;;649303;221;26842;-81
2022/01/05 05:36:02;;;;;;;7.20;2.77;;;4.80;99.90;;;;;;650397;221;26582;-80
2022/01/05 05:38:30;;;;;;;5.37;2.23;;;4.90;99.90;;;;;;650103;221;26840;-81
2022/01/05 05:40:57;;;;;;;6.30;2.23;;;5.00;99.90;;;;;;650069;221;26542;-81
2022/01/05 05:43:24;;;;;;;5.70;2.80;;;4.90;99.90;;;;;;650089;221;26519;-81
2022/01/05 05:45:52;;;;;;;2.57;2.23;;;4.90;99.90;;;;;;650094;221;26516;-86
2022/01/05 05:48:19;;;;;;;5.73;2.40;;;4.90;99.90;;;;;;650077;221;26886;-82
2022/01/05 05:50:46;;;;;;;8.13;2.40;;;4.80;99.90;;;;;;650091;221;26546;-81
2022/01/05 05:53:14;;;;;;;6.83;2.30;;;4.70;99.90;;;;;;650044;221;26826;-81
2022/01/05 05:55:41;;;;;;;7.37;2.47;;;4.70;99.90;;;;;;644740;221;26871;-81
2022/01/05 05:58:08;;;;;;;5.63;3.03;;;4.50;99.90;;;;;;637745;224;26623;-81
2022/01/05 06:00:35;;;;;;;4.70;2.37;;;4.50;99.90;;;;;;637150;221;26887;-82
2022/01/05 06:03:03;;;;;;;7.67;2.67;;;4.70;99.90;;;;;;637172;224;26783;-81
2022/01/05 06:05:31;;;;;;;3.70;2.33;;;4.40;99.90;;;;;;637156;224;26581;-81
2022/01/05 06:07:58;;;;;;;5.20;2.20;;;4.40;99.90;;;;;;637190;220;26800;-81
2022/01/05 06:10:25;;;;;;;5.13;2.10;;;4.60;99.90;;;;;;640427;224;26596;-81
2022/01/05 06:12:53;;;;;;;13.40;2.80;;;4.50;99.90;;;;;;641062;222;26821;-81
2022/01/05 06:15:20;;;;;;;7.47;3.07;;;4.30;99.90;;;;;;642212;224;26555;-81
2022/01/05 06:17:47;;;;;;;6.83;2.60;;;4.40;99.90;;;;;;641754;223;26559;-81
2022/01/05 06:20:15;;;;;;;7.37;2.60;;;4.70;99.90;;;;;;641516;218;27052;-81
2022/01/05 06:22:42;;;;;;;6.93;2.73;;;4.70;99.90;;;;;;641243;224;26716;-81
2022/01/05 06:25:09;;;;;;;6.30;2.30;;;4.70;99.90;;;;;;641119;223;26566;-81
2022/01/05 06:27:37;;;;;;;8.10;2.57;;;5.20;99.90;;;;;;641081;224;26510;-81
2022/01/05 06:30:07;;;;;;;5.67;2.83;;;5.00;99.90;;;;;;641545;224;26537;-83
2022/01/05 06:32:35;;;;;;;9.10;2.43;;;4.80;99.90;;;;;;647977;221;26502;-81
2022/01/05 06:35:02;;;;;;;9.20;2.80;;;4.70;99.90;;;;;;644226;222;26780;-81
2022/01/05 06:37:29;;;;;;;6.07;2.03;;;4.90;99.90;;;;;;637788;224;26806;-81
2022/01/05 06:39:56;;;;;;;3.37;2.00;;;4.90;99.90;;;;;;637393;221;26534;-81
2022/01/05 06:42:24;;;;;;;12.03;2.57;;;4.50;99.90;;;;;;637530;224;26589;-81
2022/01/05 06:44:52;;;;;;;5.30;2.33;;;4.50;99.90;;;;;;637564;224;26555;-81
2022/01/05 06:47:19;;;;;;;4.53;2.73;;;4.50;99.90;;;;;;637650;224;26560;-82
2022/01/05 06:49:46;;;;;;;8.13;3.33;;;4.70;99.90;;;;;;637584;221;26807;-81
2022/01/05 06:52:14;;;;;;;3.50;2.13;;;4.60;99.90;;;;;;637253;224;26533;-81
2022/01/05 06:54:42;;;;;;;8.73;2.83;;;4.80;99.90;;;;;;637248;226;26568;-81
2022/01/05 06:57:10;;;;;;;7.90;2.87;;;4.70;99.90;;;;;;637251;224;26582;-81
2022/01/05 06:59:37;;;;;;;6.77;2.33;;;4.60;99.90;;;;;;637267;224;26581;-84
2022/01/05 07:02:04;;;;;;;6.77;2.87;;;4.50;99.90;;;;;;637191;225;26764;-81
2022/01/05 07:04:31;;;;;;;3.67;2.20;;;4.50;99.90;;;;;;637143;224;26825;-81
2022/01/05 07:06:58;;;;;;;4.07;2.30;;;4.40;99.90;;;;;;637130;224;26573;-81
2022/01/05 07:09:25;;;;;;;6.30;2.60;;;4.60;99.90;;;;;;637055;221;26614;-81
2022/01/05 07:11:53;;;;;;;9.13;3.23;;;4.50;99.90;;;;;;637396;224;26526;-81
2022/01/05 07:14:20;;;;;;;7.23;3.13;;;4.50;99.90;;;;;;637604;224;26805;-82
2022/01/05 07:16:48;;;;;;;7.07;2.40;;;4.60;99.90;;;;;;637177;224;26577;-81
2022/01/05 07:19:16;;;;;;;9.13;2.80;;;4.70;99.90;;;;;;637157;225;26852;-81
2022/01/05 07:21:42;;;;;;;11.23;2.70;;;4.80;99.90;;;;;;637148;224;26563;-85
2022/01/05 07:24:12;;;;;;;5.97;2.47;;;4.60;99.90;;;;;;637381;223;26557;-81
2022/01/05 07:26:37;;;;;;;8.23;3.07;;;4.50;99.90;;;;;;638733;224;26548;-83
2022/01/05 07:29:04;;;;;;;10.70;3.17;;;4.50;99.90;;;;;;641160;224;26591;-84
2022/01/05 07:31:32;;;;;;;7.40;2.80;;;4.50;99.90;;;;;;640433;224;26590;-84
2022/01/05 07:33:59;;;;;;;9.70;2.43;;;4.50;99.90;;;;;;641250;223;26839;-84
2022/01/05 07:36:27;;;;;;;7.33;2.30;;;4.60;99.90;;;;;;638872;223;26524;-86
2022/01/05 07:38:55;;;;;;;7.60;2.37;;;4.60;99.90;;;;;;638873;224;26568;-87
2022/01/05 07:41:22;;;;;;;6.60;2.33;;;4.60;99.90;;;;;;639731;222;26576;-88
2022/01/05 07:43:51;;;;;;;11.33;2.93;;;4.80;99.90;;;;;;640685;222;26585;-83
2022/01/05 07:46:17;;;;;;;7.30;2.70;;;5.00;99.90;;;;;;640046;224;26846;-81
2022/01/05 07:48:44;;;;;;;6.37;2.60;;;4.70;99.90;;;;;;637583;222;26547;-82
2022/01/05 07:51:11;;;;;;;7.50;3.13;;;4.60;99.90;;;;;;644270;221;26635;-81
2022/01/05 07:53:38;;;;;;;6.33;2.80;;;4.70;99.90;;;;;;638646;221;26575;-82
2022/01/05 07:56:08;;;;;;;5.53;2.93;;;4.80;99.90;;;;;;643221;221;27305;-83
2022/01/05 07:58:34;;;;;;;9.53;3.10;;;4.70;99.90;;;;;;640997;222;26587;-82
2022/01/05 08:01:01;;;;;;;7.80;2.90;;;4.50;99.90;;;;;;638144;224;26610;-82
2022/01/05 08:03:30;;;;;;;10.40;3.10;;;4.50;99.90;;;;;;637888;224;26606;-81
2022/01/05 08:05:55;;;;;;;4.87;2.50;;;4.40;99.90;;;;;;636802;224;26594;-81
2022/01/05 08:08:22;;;;;;;8.60;2.97;;;4.50;99.90;;;;;;637112;224;26807;-78
2022/01/05 08:10:49;;;;;;;9.40;2.80;;;4.50;99.90;;;;;;638487;224;26598;-79
2022/01/05 08:13:17;;;;;;;7.27;2.97;;;4.30;99.90;;;;;;639565;221;26559;-80
2022/01/05 08:15:45;;;;;;;7.30;2.77;;;4.30;99.90;;;;;;644879;221;26584;-80
2022/01/05 08:18:12;;;;;;;9.50;2.73;;;4.30;99.90;;;;;;637210;224;26610;-80
2022/01/05 08:20:40;;;;;;;5.83;2.70;;;4.20;99.90;;;;;;639160;224;26588;-80
2022/01/05 08:23:07;;;;;;;5.97;2.67;;;4.10;99.90;;;;;;638153;222;26829;-78
2022/01/05 08:25:35;;;;;;;7.83;2.80;;;4.00;99.90;;;;;;639608;222;26807;-79
2022/01/05 08:28:02;;;;;;;9.63;2.83;;;4.00;99.90;;;;;;646008;222;26595;-80
2022/01/05 08:30:33;;;;;;;6.90;3.13;;;4.10;99.90;;;;;;638636;221;26837;-80
2022/01/05 08:32:57;;;;;;;10.67;2.80;;;4.00;99.90;;;;;;636327;226;26819;-80
2022/01/05 08:35:24;;;;;;;10.93;3.17;;;4.00;99.90;;;;;;636714;225;26586;-81
2022/01/05 08:37:51;;;;;;;6.87;3.27;;;4.00;99.90;;;;;;641560;223;27302;-81
2022/01/05 08:40:19;;;;;;;8.00;2.63;;;4.30;99.90;;;;;;649297;220;26550;-80
2022/01/05 08:42:47;;;;;;;7.73;2.73;;;4.20;99.90;;;;;;637917;223;26595;-80
2022/01/05 08:45:15;;;;;;;8.17;2.77;;;4.20;99.90;;;;;;637807;223;26564;-81
2022/01/05 08:47:45;;;;;;;8.50;2.70;;;4.30;99.90;;;;;;637593;225;26508;-80
2022/01/05 08:50:09;;;;;;;8.17;2.63;;;4.40;99.90;;;;;;646825;222;27192;-81
2022/01/05 08:52:36;;;;;;;10.13;3.03;;;4.50;99.90;;;;;;646121;222;26514;-79
2022/01/05 08:55:04;;;;;;;6.37;2.57;;;4.70;99.90;;;;;;647472;222;26563;-80
2022/01/05 08:57:31;;;;;;;11.03;2.70;;;4.60;99.90;;;;;;647268;222;26590;-80
2022/01/05 08:59:59;;;;;;;8.07;2.93;;;4.80;99.90;;;;;;647323;222;26593;-80
2022/01/05 09:02:28;;;;;;;5.13;2.87;;;4.80;99.90;;;;;;648059;221;26838;-80
2022/01/05 09:04:54;;;;;;;8.90;2.80;;;4.60;99.90;;;;;;650222;221;26569;-80
2022/01/05 09:07:21;;;;;;;7.57;2.63;;;4.70;99.90;;;;;;650217;221;27246;-80
2022/01/05 09:09:49;;;;;;;9.83;3.40;;;4.40;99.90;;;;;;650167;221;26570;-79
2022/01/05 09:12:17;;;;;;;7.33;2.67;;;4.50;99.90;;;;;;644443;221;26571;-80
2022/01/05 09:14:44;;;;;;;5.77;2.70;;;4.50;99.90;;;;;;636963;225;26547;-80
2022/01/05 09:17:11;;;;;;;7.60;2.70;;;4.50;99.90;;;;;;637009;224;26592;-80
2022/01/05 09:19:38;;;;;;;8.67;2.73;;;4.30;99.90;;;;;;637661;224;26842;-80
2022/01/05 09:22:06;;;;;;;7.30;3.37;;;4.50;99.90;;;;;;640105;224;26564;-79
2022/01/05 09:24:36;;;;;;;7.77;3.00;;;4.40;99.90;;;;;;637034;225;26589;-81
2022/01/05 09:27:04;;;;;;;5.77;2.67;;;4.30;99.90;;;;;;638538;224;26584;-80
2022/01/05 09:29:29;;;;;;;9.13;3.20;;;4.60;99.90;;;;;;638407;221;26560;-80
2022/01/05 09:31:56;;;;;;;10.73;3.20;;;4.70;99.90;;;;;;637657;224;26831;-80
2022/01/05 09:34:23;;;;;;;10.80;3.20;;;4.70;99.90;;;;;;641028;224;26536;-80
2022/01/05 09:36:58;;;;;;;11.70;3.10;;;4.80;99.90;;;;;;640992;224;26480;-81
2022/01/05 09:41:57;;;;;;;8.70;3.00;;;5.10;99.90;;;;;;637581;224;26578;-81
2022/01/05 09:44:25;;;;;;;14.17;2.93;;;5.30;99.90;;;;;;647706;222;26514;-83
2022/01/05 09:47:10;;;;;;;6.80;2.70;;;5.40;99.90;;;;;;643365;222;26553;-81
2022/01/05 09:49:37;;;;;;;7.50;2.83;;;5.80;99.90;;;;;;638959;224;26998;-80
2022/01/05 09:52:04;;;;;;;7.00;3.43;;;5.80;99.90;;;;;;639082;223;26484;-84
2022/01/05 09:54:31;;;;;;;9.67;2.97;;;6.20;99.90;;;;;;641887;223;26562;-81
2022/01/05 09:56:58;;;;;;;7.03;2.57;;;6.20;99.90;;;;;;640239;223;26526;-81
2022/01/05 09:59:26;;;;;;;9.30;3.33;;;6.10;99.90;;;;;;640491;224;27118;-81
2022/01/05 10:01:53;;;;;;;7.40;2.90;;;6.00;99.90;;;;;;641724;223;26484;-80
2022/01/05 10:04:20;;;;;;;9.93;3.00;;;5.80;99.90;;;;;;641652;223;26924;-81
2022/01/05 10:06:47;;;;;;;10.27;3.07;;;5.70;99.90;;;;;;641439;223;26550;-81
2022/01/05 10:09:14;;;;;;;7.07;3.17;;;5.50;99.90;;;;;;645122;222;26525;-82
2022/01/05 10:11:42;;;;;;;9.00;3.00;;;5.60;99.90;;;;;;647726;222;26504;-83
2022/01/05 10:14:12;;;;;;;6.63;3.07;;;5.60;99.90;;;;;;638302;224;26963;-78
2022/01/05 10:16:37;;;;;;;5.80;2.43;;;6.00;99.90;;;;;;641090;221;26534;-78
2022/01/05 10:19:05;;;;;;;9.10;2.80;;;6.40;99.90;;;;;;641269;221;26768;-78
2022/01/05 10:21:35;;;;;;;9.23;3.00;;;6.20;99.90;;;;;;637847;225;26481;-79
2022/01/05 10:24:03;;;;;;;9.57;3.63;;;6.20;99.90;;;;;;640140;224;27032;-79
2022/01/05 10:26:30;;;;;;;6.00;3.00;;;6.30;99.90;;;;;;641009;224;26485;-80
2022/01/05 10:28:59;;;;;;;8.07;3.00;;;6.00;99.90;;;;;;640988;224;26483;-85
2022/01/05 10:31:27;;;;;;;7.70;2.47;;;5.70;99.90;;;;;;638720;224;26535;-83
2022/01/05 10:33:54;;;;;;;11.43;2.80;;;5.80;99.90;;;;;;637418;224;26576;-86
2022/01/05 10:36:21;;;;;;;6.23;2.60;;;6.20;99.90;;;;;;637397;224;26576;-87
2022/01/05 10:38:53;;;;;;;9.67;3.90;;;6.10;99.90;;;;;;637429;224;26541;-86
2022/01/05 10:41:20;;;;;;;6.57;3.23;;;6.00;99.90;;;;;;637257;223;26616;-86
2022/01/05 10:43:59;;;;;;;7.13;3.27;;;6.10;99.90;;;;;;637209;219;26564;-84
2022/01/05 10:46:35;;;;;;;9.93;2.70;;;6.40;99.90;;;;;;637198;224;26603;-84
2022/01/05 10:49:03;;;;;;;9.07;3.43;;;6.80;99.90;;;;;;637318;224;27259;-87
2022/01/05 10:51:32;;;;;;;9.07;3.00;;;6.60;99.90;;;;;;637273;225;26561;-84
2022/01/05 10:54:09;;;;;;;6.33;2.83;;;6.00;99.90;;;;;;637558;224;26902;-85
2022/01/05 10:56:36;;;;;;;10.67;3.10;;;6.10;99.90;;;;;;640534;224;26798;-87
2022/01/05 10:59:03;;;;;;;6.97;2.97;;;6.30;99.90;;;;;;640880;220;26595;-86
2022/01/05 11:01:30;;;;;;;6.60;3.00;;;6.70;99.90;;;;;;639752;224;26863;-85
2022/01/05 11:03:58;;;;;;;5.97;2.77;;;6.40;99.90;;;;;;638337;219;26505;-88
2022/01/05 11:06:26;;;;;;;6.97;2.70;;;6.70;99.90;;;;;;639327;224;26575;-87
2022/01/05 11:08:56;;;;;;;11.77;2.97;;;6.60;99.90;;;;;;641453;223;26563;-87
2022/01/05 11:11:30;;;;;;;12.67;3.63;;;6.50;99.90;;;;;;641134;218;27053;-83
2022/01/05 11:13:57;;;;;;;5.83;2.57;;;6.40;99.90;;;;;;641078;223;26517;-83
2022/01/05 11:16:25;;;;;;;6.30;2.70;;;6.20;99.90;;;;;;641205;223;26538;-84
2022/01/05 11:18:52;;;;;;;6.13;2.77;;;6.40;99.90;;;;;;640825;224;26575;-83
2022/01/05 11:21:20;;;;;;;8.10;3.27;;;6.50;99.90;;;;;;638032;222;26587;-84
2022/01/05 11:23:47;;;;;;;7.17;2.93;;;6.50;99.90;;;;;;640966;218;26802;-84
2022/01/05 11:26:14;;;;;;;9.43;3.20;;;6.80;99.90;;;;;;640930;224;26573;-82
2022/01/05 11:28:41;;;;;;;8.07;3.50;;;6.90;99.90;;;;;;641195;223;26878;-84
2022/01/05 11:31:09;;;;;;;12.17;3.30;;;6.70;99.90;;;;;;640954;221;26589;-84
2022/01/05 11:33:37;;;;;;;6.03;2.87;;;6.50;99.90;;;;;;640981;224;26570;-83
2022/01/05 11:36:05;;;;;;;9.60;3.10;;;6.50;99.90;;;;;;640781;223;26555;-84
2022/01/05 11:38:32;;;;;;;8.73;3.30;;;6.80;99.90;;;;;;640623;224;26580;-84
2022/01/05 11:40:59;;;;;;;7.33;2.87;;;6.90;99.90;;;;;;640745;224;26833;-84
2022/01/05 11:43:27;;;;;;;7.20;3.03;;;7.00;99.90;;;;;;640780;224;26515;-84
2022/01/05 11:45:53;;;;;;;8.80;3.43;;;7.00;99.90;;;;;;640642;224;26517;-84
2022/01/05 11:48:22;;;;;;;8.50;3.10;;;6.50;99.90;;;;;;640636;224;26544;-83
2022/01/05 11:50:56;;;;;;;8.97;3.10;;;6.40;99.90;;;;;;640637;221;26612;-84
2022/01/05 11:53:38;;;;;;;6.87;2.70;;;6.30;99.90;;;;;;640527;224;26545;-84
2022/01/05 11:56:05;;;;;;;5.50;3.20;;;6.20;99.90;;;;;;639330;224;26583;-84
2022/01/05 11:58:33;;;;;;;7.87;2.90;;;6.40;99.90;;;;;;640665;224;26579;-84
2022/01/05 12:01:12;;;;;;;11.73;3.23;;;6.60;99.90;;;;;;640576;224;26639;-84
2022/01/05 12:04:01;;;;;;;9.43;3.00;;;6.50;99.90;;;;;;640660;224;27308;-84
2022/01/05 12:06:30;;;;;;;8.13;3.50;;;6.40;99.90;;;;;;640643;224;26573;-84
2022/01/05 12:08:55;;;;;;;7.30;3.30;;;6.30;99.90;;;;;;640461;224;26560;-84
2022/01/05 12:11:29;;;;;;;6.47;3.30;;;6.30;99.90;;;;;;641708;222;26560;-85
2022/01/05 12:13:57;;;;;;;6.30;3.10;;;6.50;99.90;;;;;;642123;223;26579;-84
2022/01/05 12:16:25;;;;;;;6.87;3.10;;;6.10;99.90;;;;;;641047;223;26587;-84
2022/01/05 12:19:04;;;;;;;3.30;2.77;;;6.00;99.90;;;;;;638145;225;26581;-84
2022/01/05 12:21:45;;;;;;;6.87;2.90;;;6.00;99.90;;;;;;637841;223;26556;-84
2022/01/05 12:24:12;;;;;;;4.63;2.70;;;6.10;99.90;;;;;;637769;219;26587;-84
2022/01/05 12:26:39;;;;;;;6.50;2.87;;;6.20;99.90;;;;;;637857;224;26567;-84
2022/01/05 12:29:07;;;;;;;6.87;2.60;;;6.10;99.90;;;;;;637722;225;26610;-84
2022/01/05 12:31:46;;;;;;;9.47;3.20;;;6.10;99.90;;;;;;637614;224;26551;-84
2022/01/05 12:34:15;;;;;;;5.93;2.87;;;6.30;99.90;;;;;;637618;225;26512;-84
2022/01/05 12:36:42;;;;;;;6.10;2.80;;;6.40;99.90;;;;;;636266;225;26588;-84
2022/01/05 12:39:09;;;;;;;4.00;2.73;;;6.30;99.90;;;;;;637546;224;26626;-85
2022/01/05 12:41:36;;;;;;;9.00;3.20;;;6.30;99.90;;;;;;637533;225;26612;-84
2022/01/05 12:44:04;;;;;;;6.90;3.00;;;6.40;99.90;;;;;;637530;224;26814;-84
2022/01/05 12:46:39;;;;;;;7.43;3.30;;;6.30;99.90;;;;;;637545;225;26591;-84
2022/01/05 12:49:09;;;;;;;6.43;2.70;;;6.50;99.90;;;;;;637264;224;26560;-84
2022/01/05 12:51:38;;;;;;;7.87;2.80;;;6.40;99.90;;;;;;637255;224;26822;-84
2022/01/05 12:54:07;;;;;;;7.27;2.87;;;6.50;99.90;;;;;;637081;224;26591;-84
2022/01/05 12:56:34;;;;;;;6.27;3.13;;;6.30;99.90;;;;;;637253;226;26830;-83
2022/01/05 12:59:04;;;;;;;7.30;2.93;;;6.50;99.90;;;;;;637061;225;26817;-83
2022/01/05 13:01:32;;;;;;;4.97;2.93;;;6.40;99.90;;;;;;637188;224;26576;-84